Pagrindinis puslapis
METAR-TAF:

METAR-TAF

Oro uostai :

Tarptautinis Philip S. W. Goldson oro uostas

Belizas, Belizas

platuma: 17-32N, ilguma: 088-18W, Aukštis: 5 m

Dabartinis oras

Ataskaita buvo paskelbta 3 valandos ir 27 minutes, ne 00:00 UTC
Vėjas 7 kt iš Šiaurės Rytų
Temperatūra 30°C
Drėgmė 79%
Slėgis 1009 hPa
Matomumas: 9000 m
Mažai debesys ne aukštis 2100 ft
Su prošvaistėmis ne aukštis 3800 ft

METAR: MZBZ 200000Z 05007KT 9000 FEW021 BKN038 30/26 A2980 Q1009 NOSIG RMK HZ

Laikas: 21:27 (03:27 UTC)

Prognozė

Ataskaita buvo paskelbta 5 valandos ir 27 minutes, ne 22:00 UTC
Prognozė galioja nuo 20 metu 00 UTC su 20 metu 24 UTC
Vėjas 7 kt iš Rytų
Matomumas: 9000 m
Išsisklaidę debesys ne aukštis 2200 ft

TAF: MZBZ 192200Z 2000/2024 09007KT 9000 SCT022

Orai ataskaitas ir orų prognozės (METAR, TAF).

turimą stotys yra geltonos ir raudonos taškus žemėlapyje.

Perkelti pele per norėdami pamatyti stoties vardą.

Tada spustelėkite, norėdami matyti oro stebėjimo ir prognozės.

Norėdami pakeisti žemėlapį: spustelėkite ant žalios mygtukų su juodo kryžiaus žemyn,; žalią mygtuką su brūkšneliu, jei norite nutolinti; arba žalių rodyklių gretimoms žemėlapius.


METAR-TAF: